Benone, United Kingdom
Current Conditions -  °F | °C
As of 8:50 AM on Wednesday 26 Nov 2014 (Local Time) from EGAE Reporting Station
Light Fog Light Fog  
Wind Chill: 36°   Ceiling: Unl
Heat Index: 36°   Visibility: 6mi
Dew Point: 36°   Wind: 3mph
Humidity: 100%   Direction: NA
Pressure: 29.97"   Gusts: NA
Location:  55.17°N, 6.88°W
Report Text: EGAE 260850Z VRB03KT 9999 1000N BCFG 02/02 Q1015
Loading
Personal Weather Stations






























Interactive Weather Map New forecast layout! Learn more

10-Day Weather Forecast

Advertisements
Track Severe Weather on mobile